Time;durP1;ratioP1;P1;durP2;ratioP2;P2;SDS_P1;SDS_P2;PMS_P1;PMS_P2;Temp;Humidity;BMP_temperature;BMP_pressure;BME280_temperature;BME280_humidity;BME280_pressure;Samples;Min_cycle;Max_cycle;Signal;HPM_P1;HPM_P2
2022/11/02 00:01:42;;;;;;;;;1.00;0.50;;;;;13.60;63.27;99906.63;5116401;28;8828;-57
2022/11/02 00:04:12;;;;;;;;;0.00;0.00;;;;;13.62;62.71;99905.53;5119427;28;8930;-57
2022/11/02 00:06:40;;;;;;;;;0.50;0.50;;;;;13.67;62.62;99905.09;5119406;28;8808;-57
2022/11/02 00:09:08;;;;;;;;;1.50;1.00;;;;;13.70;62.93;99904.78;5119281;28;8866;-57
2022/11/02 00:11:36;;;;;;;;;0.25;0.25;;;;;13.74;62.66;99900.84;5119322;28;8827;-57
2022/11/02 00:14:04;;;;;;;;;1.00;1.00;;;;;13.76;62.61;99901.56;5119411;28;8835;-58
2022/11/02 00:16:32;;;;;;;;;1.00;1.00;;;;;13.80;62.62;99900.25;5119645;28;8816;-58
2022/11/02 00:19:00;;;;;;;;;0.25;0.00;;;;;13.82;62.89;99892.94;5119610;28;9509;-57
2022/11/02 00:21:27;;;;;;;;;0.50;0.50;;;;;13.84;62.92;99905.22;5118761;28;8816;-58
2022/11/02 00:23:55;;;;;;;;;3.00;1.00;;;;;13.86;62.79;99888.97;5118308;28;8921;-57
2022/11/02 00:26:23;;;;;;;;;0.00;0.00;;;;;13.87;62.40;99894.19;5119162;28;8815;-57
2022/11/02 00:28:52;;;;;;;;;2.00;1.00;;;;;13.88;62.88;99877.16;5119276;28;8829;-58
2022/11/02 00:31:20;;;;;;;;;0.00;0.00;;;;;13.90;62.46;99879.69;5117870;28;8812;-57
2022/11/02 00:33:47;;;;;;;;;0.00;0.00;;;;;13.93;62.72;99868.69;5118590;28;8828;-56
2022/11/02 00:36:16;;;;;;;;;0.00;0.00;;;;;13.98;62.64;99885.16;5104566;28;8889;-58
2022/11/02 00:38:43;;;;;;;;;0.00;0.00;;;;;14.01;62.64;99893.75;5098406;28;8830;-58
2022/11/02 00:41:13;;;;;;;;;1.00;0.00;;;;;14.02;62.30;99881.19;5098378;28;8914;-57
2022/11/02 00:43:41;;;;;;;;;1.00;1.00;;;;;14.03;62.79;99877.56;5097953;28;8923;-58
2022/11/02 00:46:09;;;;;;;;;2.00;0.75;;;;;14.04;62.36;99882.75;5098350;28;9471;-58
2022/11/02 00:48:36;;;;;;;;;0.50;0.00;;;;;14.03;62.56;99891.78;5098304;28;8814;-57
2022/11/02 00:51:04;;;;;;;;;2.00;1.00;;;;;14.01;62.41;99866.13;5098331;28;8859;-58
2022/11/02 00:53:33;;;;;;;;;1.00;1.00;;;;;13.94;62.55;99886.44;5098354;28;8814;-57
2022/11/02 00:56:00;;;;;;;;;0.25;0.25;;;;;13.89;62.81;99891.41;5097716;28;8822;-58
2022/11/02 00:58:28;;;;;;;;;1.00;1.00;;;;;13.79;63.33;99896.75;5097941;28;8857;-57
2022/11/02 01:00:56;;;;;;;;;1.00;1.00;;;;;13.71;63.41;99888.59;5108649;28;8819;-57
2022/11/02 01:03:24;;;;;;;;;1.00;1.00;;;;;13.59;64.37;99889.72;5118460;28;8858;-57
2022/11/02 01:05:52;;;;;;;;;0.00;0.00;;;;;13.51;64.02;99886.09;5118124;28;8811;-57
2022/11/02 01:08:19;;;;;;;;;0.00;0.00;;;;;13.50;64.50;99893.25;5118465;28;8828;-58
2022/11/02 01:10:47;;;;;;;;;0.25;0.25;;;;;13.51;64.29;99881.56;5117974;28;8816;-57
2022/11/02 01:13:15;;;;;;;;;0.25;0.00;;;;;13.55;64.80;99890.16;5118300;28;8827;-57
2022/11/02 01:15:43;;;;;;;;;0.75;0.50;;;;;13.55;64.39;99877.63;5118292;28;8807;-57
2022/11/02 01:18:12;;;;;;;;;1.00;0.25;;;;;13.57;64.44;99877.47;5118082;28;8831;-58
2022/11/02 01:20:40;;;;;;;;;0.50;0.50;;;;;13.57;64.14;99864.94;5117743;28;8865;-57
2022/11/02 01:23:07;;;;;;;;;0.00;0.00;;;;;13.58;64.29;99874.66;5117743;28;8819;-58
2022/11/02 01:25:35;;;;;;;;;0.00;0.00;;;;;13.61;64.44;99878.88;5118008;28;8903;-57
2022/11/02 01:28:03;;;;;;;;;0.00;0.00;;;;;13.63;64.42;99874.22;5118104;28;8812;-58
2022/11/02 01:30:33;;;;;;;;;0.00;0.00;;;;;13.62;64.60;99862.69;5118136;28;8877;-57
2022/11/02 01:33:01;;;;;;;;;0.00;0.00;;;;;13.63;64.70;99880.44;5118113;28;8811;-57
2022/11/02 01:35:29;;;;;;;;;0.00;0.00;;;;;13.63;64.41;99883.13;5110084;28;8887;-58
2022/11/02 01:37:56;;;;;;;;;0.00;0.00;;;;;13.65;64.34;99893.66;5096847;28;8861;-57
2022/11/02 01:40:24;;;;;;;;;0.50;0.00;;;;;13.65;65.00;99872.25;5096954;28;8918;-57
2022/11/02 01:42:52;;;;;;;;;3.00;3.00;;;;;13.63;65.19;99883.13;5095989;28;8810;-57
2022/11/02 01:45:20;;;;;;;;;0.25;0.00;;;;;13.65;64.78;99885.63;5096840;28;8837;-57
2022/11/02 01:47:48;;;;;;;;;0.00;0.00;;;;;13.66;64.93;99888.16;5096926;28;8818;-57
2022/11/02 01:50:15;;;;;;;;;1.00;1.00;;;;;13.65;64.30;99880.28;5096813;28;8912;-57
2022/11/02 01:52:43;;;;;;;;;0.00;0.00;;;;;13.63;64.43;99883.13;5096492;28;8902;-58
2022/11/02 01:55:12;;;;;;;;;0.00;0.00;;;;;13.61;64.50;99879.75;5096823;28;8836;-58
2022/11/02 01:57:39;;;;;;;;;0.50;0.25;;;;;13.58;64.69;99881.88;5096930;28;8837;-58
2022/11/02 02:00:07;;;;;;;;;1.00;1.00;;;;;13.54;64.42;99873.28;5101029;28;8820;-56
2022/11/02 02:02:35;;;;;;;;;0.00;0.00;;;;;13.51;65.03;99872.72;5117012;28;8835;-57
2022/11/02 02:05:03;;;;;;;;;0.25;0.25;;;;;13.47;65.19;99871.28;5117008;28;8831;-57
2022/11/02 02:07:31;;;;;;;;;2.50;2.00;;;;;13.44;65.32;99860.91;5117228;28;8850;-58
2022/11/02 02:09:58;;;;;;;;;0.00;0.00;;;;;13.42;65.67;99878.88;5117105;28;8823;-57
2022/11/02 02:12:26;;;;;;;;;1.00;1.00;;;;;13.40;65.23;99880.88;5116946;28;8920;-58
2022/11/02 02:14:54;;;;;;;;;1.00;0.00;;;;;13.43;65.11;99869.91;5116761;28;8896;-57
2022/11/02 02:17:22;;;;;;;;;1.00;1.00;;;;;13.46;65.32;99874.97;5116925;28;9548;-57
2022/11/02 02:19:51;;;;;;;;;0.00;0.00;;;;;13.52;64.95;99877.06;5116810;28;8838;-57
2022/11/02 02:22:19;;;;;;;;;1.00;0.75;;;;;13.58;65.01;99871.16;5116838;28;8847;-57
2022/11/02 02:24:47;;;;;;;;;0.50;0.00;;;;;13.63;64.70;99876.91;5116736;28;8800;-58
2022/11/02 02:27:15;;;;;;;;;0.50;0.00;;;;;13.67;64.88;99867.63;5116827;28;8820;-58
2022/11/02 02:29:42;;;;;;;;;0.75;0.75;;;;;13.71;64.73;99869.88;5116441;28;8820;-58
2022/11/02 02:32:10;;;;;;;;;1.50;1.00;;;;;13.74;64.54;99871.41;5116663;28;8913;-57
2022/11/02 02:34:38;;;;;;;;;1.50;1.00;;;;;13.74;64.40;99855.34;5116154;28;8823;-57
2022/11/02 02:37:06;;;;;;;;;1.00;1.00;;;;;13.70;65.10;99857.47;5096281;28;8814;-58
2022/11/02 02:39:34;;;;;;;;;1.00;0.50;;;;;13.66;64.63;99865.94;5096715;28;9449;-58
2022/11/02 02:42:02;;;;;;;;;1.00;0.00;;;;;13.65;65.39;99853.50;5096000;28;8818;-57
2022/11/02 02:44:30;;;;;;;;;0.00;0.00;;;;;13.63;65.53;99848.34;5096231;28;9511;-58
2022/11/02 02:46:58;;;;;;;;;0.00;0.00;;;;;13.62;65.29;99864.53;5096108;28;8830;-57
2022/11/02 02:49:26;;;;;;;;;2.75;0.75;;;;;13.59;64.83;99868.31;5095827;28;8814;-57
2022/11/02 02:51:54;;;;;;;;;0.25;0.00;;;;;13.55;65.29;99858.06;5096153;28;8890;-58
2022/11/02 02:54:21;;;;;;;;;0.50;0.00;;;;;13.52;65.24;99869.88;5097459;28;8814;-58
2022/11/02 02:56:51;;;;;;;;;2.75;0.25;;;;;13.47;65.63;99856.09;5100740;28;8842;-57
2022/11/02 02:59:19;;;;;;;;;0.00;0.00;;;;;13.45;65.75;99851.88;5099832;28;8915;-58
2022/11/02 03:01:46;;;;;;;;;0.00;0.00;;;;;13.42;65.65;99862.84;5118238;28;8819;-58
2022/11/02 03:04:14;;;;;;;;;0.00;0.00;;;;;13.40;65.86;99871.03;5120674;28;8800;-58
2022/11/02 03:06:42;;;;;;;;;0.00;0.00;;;;;13.39;65.92;99863.13;5120258;28;8823;-57
2022/11/02 03:09:11;;;;;;;;;3.00;2.50;;;;;13.36;65.75;99864.25;5120387;28;8832;-57
2022/11/02 03:11:38;;;;;;;;;0.00;0.00;;;;;13.37;66.22;99875.81;5120588;28;8901;-58
2022/11/02 03:14:06;;;;;;;;;1.00;1.00;;;;;13.35;65.82;99880.47;5120623;28;8828;-58
2022/11/02 03:16:33;;;;;;;;;0.00;0.00;;;;;13.32;65.77;99878.06;5120116;28;8873;-58
2022/11/02 03:19:01;;;;;;;;;0.00;0.00;;;;;13.31;65.91;99877.22;5120337;28;9497;-58
2022/11/02 03:21:29;;;;;;;;;1.00;1.00;;;;;13.32;66.40;99881.59;5120646;28;8823;-58
2022/11/02 03:23:57;;;;;;;;;0.50;0.25;;;;;13.33;66.39;99859.22;5120551;28;8828;-57
2022/11/02 03:26:24;;;;;;;;;0.00;0.00;;;;;13.35;66.28;99877.81;5120582;28;8828;-56
2022/11/02 03:28:52;;;;;;;;;1.00;1.00;;;;;13.33;66.07;99885.94;5120307;28;9594;-55
2022/11/02 03:31:20;;;;;;;;;1.50;1.00;;;;;13.31;66.46;99882.59;5120022;28;8827;-57
2022/11/02 03:33:48;;;;;;;;;0.75;0.75;;;;;13.29;66.25;99873.00;5119916;28;8819;-57
2022/11/02 03:36:15;;;;;;;;;1.00;1.00;;;;;13.29;66.54;99870.34;5105484;28;8904;-58
2022/11/02 03:38:43;;;;;;;;;1.50;0.50;;;;;13.27;66.15;99880.31;5099442;28;9527;-58
2022/11/02 03:41:10;;;;;;;;;1.00;1.00;;;;;13.22;66.74;99891.41;5099615;28;8901;-55
2022/11/02 03:43:38;;;;;;;;;1.50;1.00;;;;;13.23;66.86;99898.44;5099468;28;8908;-57
2022/11/02 03:46:06;;;;;;;;;0.00;0.00;;;;;13.23;66.74;99894.94;5099817;28;8821;-58
2022/11/02 03:48:34;;;;;;;;;0.00;0.00;;;;;13.21;66.56;99892.41;5099509;28;8890;-57
2022/11/02 03:51:02;;;;;;;;;0.00;0.00;;;;;13.19;66.81;99905.09;5099525;28;8834;-57
2022/11/02 03:53:29;;;;;;;;;3.25;3.00;;;;;13.20;66.32;99906.78;5099095;28;8919;-58
2022/11/02 03:55:57;;;;;;;;;1.00;1.00;;;;;13.18;66.84;99905.22;5099022;28;8899;-58
2022/11/02 03:58:26;;;;;;;;;0.00;0.00;;;;;13.14;66.95;99907.31;5098846;28;8873;-57
2022/11/02 04:00:54;;;;;;;;;0.00;0.00;;;;;13.12;67.16;99914.66;5109622;28;8828;-58
2022/11/02 04:03:21;;;;;;;;;3.00;1.00;;;;;13.10;66.92;99918.44;5119375;28;8827;-57
2022/11/02 04:05:49;;;;;;;;;0.25;0.25;;;;;13.10;66.76;99921.09;5118370;28;8820;-58
2022/11/02 04:08:23;;;;;;;;;0.00;0.00;;;;;13.07;66.94;99932.91;5119046;28;8904;-58
2022/11/02 04:16:21;;;;;;;;;0.00;0.00;;;;;13.02;67.02;99934.31;5117831;28;8839;-57
2022/11/02 04:21:39;;;;;;;;;1.00;1.00;;;;;12.98;67.51;99933.75;5117869;28;8836;-58
2022/11/02 04:26:51;;;;;;;;;0.00;0.00;;;;;12.92;67.47;99934.25;5117403;28;8828;-56
2022/11/02 04:29:19;;;;;;;;;0.00;0.00;;;;;12.90;67.43;99935.41;5118154;28;8831;-56
2022/11/02 04:31:47;;;;;;;;;0.50;0.50;;;;;12.88;67.84;99937.34;5118324;28;8804;-57
2022/11/02 04:34:14;;;;;;;;;1.00;0.75;;;;;12.83;67.18;99945.78;5119029;28;9512;-57
2022/11/02 04:36:41;;;;;;;;;0.75;0.75;;;;;12.81;68.42;99949.56;5100673;28;8908;-58
2022/11/02 04:39:08;;;;;;;;;0.50;0.50;;;;;12.80;67.63;99947.88;5098613;28;8862;-56
2022/11/02 04:41:44;;;;;;;;;0.00;0.00;;;;;12.78;67.62;99953.38;5098037;28;8914;-57
2022/11/02 04:44:12;;;;;;;;;0.50;0.25;;;;;12.79;67.85;99949.72;5098279;28;8891;-58
2022/11/02 04:46:39;;;;;;;;;0.00;0.00;;;;;12.78;68.10;99949.84;5098091;28;8825;-57
2022/11/02 04:49:07;;;;;;;;;1.00;1.00;;;;;12.77;68.05;99969.53;5097847;28;8850;-57
2022/11/02 04:51:34;;;;;;;;;0.00;0.00;;;;;12.77;67.97;99962.34;5098329;28;9480;-57
2022/11/02 04:54:08;;;;;;;;;1.00;1.00;;;;;12.78;68.05;99958.72;5098277;28;8871;-58
2022/11/02 04:56:36;;;;;;;;;1.00;0.50;;;;;12.79;67.69;99964.91;5097822;28;8842;-58
2022/11/02 04:59:03;;;;;;;;;0.00;0.00;;;;;12.81;67.53;99968.25;5096314;28;8837;-57
2022/11/02 05:01:31;;;;;;;;;0.00;0.00;;;;;12.81;67.43;99974.47;5112201;28;8896;-55
2022/11/02 05:03:59;;;;;;;;;1.00;1.00;;;;;12.83;67.12;99969.00;5116782;28;8832;-57
2022/11/02 05:06:29;;;;;;;;;0.00;0.00;;;;;12.82;67.57;99969.94;5116843;28;8908;-57
2022/11/02 05:08:56;;;;;;;;;0.00;0.00;;;;;12.80;67.02;99962.09;5117125;28;8931;-57
2022/11/02 05:11:24;;;;;;;;;0.50;0.50;;;;;12.77;67.28;99970.34;5117258;28;8904;-57
2022/11/02 05:13:52;;;;;;;;;0.00;0.00;;;;;12.73;67.84;99963.63;5116926;28;8808;-57
2022/11/02 05:16:20;;;;;;;;;0.00;0.00;;;;;12.71;67.64;99967.41;5117765;28;8824;-57
2022/11/02 05:18:50;;;;;;;;;0.00;0.00;;;;;12.68;67.65;99970.34;5117412;28;8828;-56
2022/11/02 05:21:17;;;;;;;;;0.00;0.00;;;;;12.65;67.54;99975.94;5117719;28;8877;-58
2022/11/02 05:23:45;;;;;;;;;0.00;0.00;;;;;12.62;67.65;99973.56;5117559;28;8800;-55
2022/11/02 05:26:13;;;;;;;;;0.75;0.50;;;;;12.62;67.86;99981.56;5117555;28;8828;-57
2022/11/02 05:28:40;;;;;;;;;0.00;0.00;;;;;12.66;67.70;99983.84;5117222;28;8862;-57
2022/11/02 05:31:10;;;;;;;;;0.75;0.75;;;;;12.68;67.44;99978.38;5117281;28;8844;-57
2022/11/02 05:33:38;;;;;;;;;3.00;1.00;;;;;12.69;67.77;99986.22;5117895;28;8838;-58
2022/11/02 05:36:05;;;;;;;;;1.50;1.50;;;;;12.70;67.46;99993.25;5104480;28;8818;-57
2022/11/02 05:38:33;;;;;;;;;0.00;0.00;;;;;12.73;67.72;99997.50;5096802;28;8838;-56
2022/11/02 05:41:00;;;;;;;;;1.00;1.00;;;;;12.74;67.99;100004.53;5096989;28;8833;-55
2022/11/02 05:43:28;;;;;;;;;3.00;1.00;;;;;12.75;67.86;99991.03;5097241;28;8904;-57
2022/11/02 05:45:56;;;;;;;;;1.00;1.00;;;;;12.73;67.99;100000.16;5096699;28;8818;-55
2022/11/02 05:48:23;;;;;;;;;3.75;3.75;;;;;12.72;67.73;99999.34;5096718;28;8810;-58
2022/11/02 05:50:51;;;;;;;;;1.00;0.75;;;;;12.71;68.56;100003.00;5096655;28;8902;-59
2022/11/02 05:53:18;;;;;;;;;0.75;0.75;;;;;12.69;68.29;100007.59;5096465;28;8846;-59
2022/11/02 05:55:47;;;;;;;;;0.00;0.00;;;;;12.69;67.68;100012.13;5096539;28;8822;-59
2022/11/02 05:58:15;;;;;;;;;1.00;0.75;;;;;12.69;68.28;100018.28;5095766;28;8844;-58
2022/11/02 06:00:42;;;;;;;;;3.00;1.00;;;;;12.76;68.22;100015.94;5104191;28;8824;-59
2022/11/02 06:03:10;;;;;;;;;0.50;0.50;;;;;12.81;67.49;100011.88;5116090;28;8898;-58
2022/11/02 06:05:38;;;;;;;;;1.00;1.00;;;;;12.88;67.68;100022.88;5114927;28;9497;-59
2022/11/02 06:08:07;;;;;;;;;0.00;0.00;;;;;12.91;67.11;100022.63;5115349;28;8854;-59
2022/11/02 06:10:35;;;;;;;;;0.50;0.50;;;;;12.94;67.22;100019.66;5116218;28;8849;-59
2022/11/02 06:13:02;;;;;;;;;2.50;2.50;;;;;12.94;67.87;100025.00;5115791;28;8916;-58
2022/11/02 06:15:31;;;;;;;;;0.75;0.75;;;;;12.94;67.55;100041.03;5115216;28;8863;-59
2022/11/02 06:17:58;;;;;;;;;1.00;1.00;;;;;12.92;67.64;100030.47;5114501;28;8812;-58
2022/11/02 06:20:29;;;;;;;;;1.50;1.00;;;;;12.91;66.86;100036.81;5114241;28;8824;-59
2022/11/02 06:22:58;;;;;;;;;0.00;0.00;;;;;12.91;66.89;100050.19;5114823;28;8847;-59
2022/11/02 06:25:26;;;;;;;;;1.00;1.00;;;;;12.93;67.09;100047.38;5114529;28;8816;-59
2022/11/02 06:27:55;;;;;;;;;0.50;0.50;;;;;12.94;66.81;100057.97;5114366;28;8832;-57
2022/11/02 06:30:23;;;;;;;;;1.00;1.00;;;;;12.97;66.81;100063.03;5113297;28;8833;-59
2022/11/02 06:32:50;;;;;;;;;0.25;0.00;;;;;13.01;67.09;100068.97;5114464;28;8832;-59
2022/11/02 06:35:18;;;;;;;;;0.50;0.50;;;;;13.03;66.48;100050.97;5114311;28;8823;-59
2022/11/02 06:37:46;;;;;;;;;1.00;1.00;;;;;13.06;66.81;100069.44;5113069;28;8820;-58
2022/11/02 06:40:13;;;;;;;;;0.25;0.25;;;;;13.09;66.88;100087.84;5112269;28;8836;-59
2022/11/02 06:42:41;;;;;;;;;1.00;0.75;;;;;13.13;66.54;100086.63;5112416;28;8816;-58
2022/11/02 06:45:22;;;;;;;;;1.00;0.25;;;;;13.14;66.55;100086.47;5111705;28;8816;-59
2022/11/02 06:47:50;;;;;;;;;1.00;1.00;;;;;13.15;66.94;100095.34;5111525;28;9227;-59
2022/11/02 06:50:18;;;;;;;;;0.00;0.00;;;;;13.15;66.63;100090.00;5111243;28;8832;-58
2022/11/02 06:52:45;;;;;;;;;0.50;0.00;;;;;13.12;66.29;100091.13;5111175;28;8820;-58
2022/11/02 06:55:13;;;;;;;;;0.75;0.75;;;;;13.12;66.65;100100.94;5112461;28;9509;-58
2022/11/02 06:57:41;;;;;;;;;1.00;1.00;;;;;13.11;65.90;100107.28;5110882;28;8811;-57
2022/11/02 07:00:09;;;;;;;;;0.00;0.00;;;;;13.10;65.82;100106.44;5111112;28;8862;-58
2022/11/02 07:02:37;;;;;;;;;0.00;0.00;;;;;13.12;66.18;100119.66;5111899;28;8847;-58
2022/11/02 07:05:05;;;;;;;;;1.00;1.00;;;;;13.14;65.92;100126.56;5111380;28;8835;-57
2022/11/02 07:07:33;;;;;;;;;1.00;1.00;;;;;13.18;66.51;100136.03;5111609;28;8823;-59
2022/11/02 07:10:02;;;;;;;;;0.00;0.00;;;;;13.19;65.33;100145.75;5111663;28;8916;-59
2022/11/02 07:12:29;;;;;;;;;0.25;0.25;;;;;13.24;65.47;100153.38;5112611;28;8839;-58
2022/11/02 07:14:57;;;;;;;;;0.75;0.75;;;;;13.31;65.52;100150.03;5112983;28;8828;-57
2022/11/02 07:17:25;;;;;;;;;0.00;0.00;;;;;13.36;65.21;100152.31;5113258;28;8897;-58
2022/11/02 07:19:58;;;;;;;;;1.00;1.00;;;;;13.41;65.21;100166.13;5112466;28;8854;-58
2022/11/02 07:22:27;;;;;;;;;1.00;1.00;;;;;13.45;64.69;100167.56;5112099;28;8836;-58
2022/11/02 07:24:55;;;;;;;;;2.50;2.50;;;;;13.44;64.97;100168.53;5112935;28;8816;-58
2022/11/02 07:27:22;;;;;;;;;1.00;1.00;;;;;13.43;64.98;100165.00;5113257;28;8824;-58
2022/11/02 07:29:50;;;;;;;;;0.25;0.25;;;;;13.46;65.18;100169.25;5113154;28;8832;-58
2022/11/02 07:32:18;;;;;;;;;1.50;0.00;;;;;13.49;64.45;100185.88;5111817;28;8828;-58
2022/11/02 07:34:45;;;;;;;;;1.00;0.50;;;;;13.54;64.84;100191.69;5113398;28;8908;-56
2022/11/02 07:37:13;;;;;;;;;0.00;0.00;;;;;13.58;64.32;100184.22;5113446;28;8838;-57
2022/11/02 07:39:41;;;;;;;;;2.25;0.25;;;;;13.59;64.48;100178.72;5113885;28;8876;-58
2022/11/02 07:42:09;;;;;;;;;0.00;0.00;;;;;13.59;64.04;100183.25;5117040;28;8863;-57
2022/11/02 07:44:37;;;;;;;;;0.75;0.75;;;;;13.59;64.65;100192.09;5116335;28;9516;-57
2022/11/02 07:47:08;;;;;;;;;0.00;0.00;;;;;13.59;63.63;100184.06;5116459;28;8904;-58
2022/11/02 07:49:36;;;;;;;;;0.50;0.50;;;;;13.61;63.89;100194.66;5115398;28;8896;-57
2022/11/02 07:52:04;;;;;;;;;0.00;0.00;;;;;13.59;63.96;100200.13;5114845;28;8844;-58
2022/11/02 07:54:31;;;;;;;;;0.50;0.50;;;;;13.58;64.13;100205.63;5114000;28;9232;-57
2022/11/02 07:56:59;;;;;;;;;3.75;1.00;;;;;13.59;63.54;100210.84;5114241;28;9020;-58
2022/11/02 07:59:27;;;;;;;;;0.00;0.00;;;;;13.63;63.69;100224.78;5114190;28;8846;-56
2022/11/02 08:01:55;;;;;;;;;0.75;0.50;;;;;13.67;63.19;100221.72;5115058;28;8843;-59
2022/11/02 08:04:23;;;;;;;;;0.00;0.00;;;;;13.73;62.92;100225.69;5115698;28;9541;-59
2022/11/02 08:06:51;;;;;;;;;0.00;0.00;;;;;13.75;62.99;100243.28;5115311;28;8831;-58
2022/11/02 08:09:18;;;;;;;;;0.00;0.00;;;;;13.77;63.36;100235.13;5114841;28;8844;-58
2022/11/02 08:11:47;;;;;;;;;1.00;1.00;;;;;13.79;62.50;100235.84;5114172;28;8834;-58
2022/11/02 08:14:15;;;;;;;;;2.00;1.00;;;;;13.76;63.02;100244.16;5112649;28;8831;-59
2022/11/02 08:16:43;;;;;;;;;0.00;0.00;;;;;13.71;63.13;100241.03;5113252;28;8843;-58
2022/11/02 08:19:11;;;;;;;;;0.00;0.00;;;;;13.64;63.34;100253.25;5114205;28;8915;-59
2022/11/02 08:21:38;;;;;;;;;0.25;0.25;;;;;13.58;62.93;100248.44;5113438;28;8848;-59
2022/11/02 08:24:07;;;;;;;;;0.25;0.25;;;;;13.52;62.60;100255.16;5113657;28;8842;-59
2022/11/02 08:26:35;;;;;;;;;1.00;1.00;;;;;13.51;63.13;100274.03;5114446;28;8835;-59
2022/11/02 08:29:07;;;;;;;;;0.00;0.00;;;;;13.56;62.91;100266.44;5115137;28;8912;-59
2022/11/02 08:31:35;;;;;;;;;0.00;0.00;;;;;13.62;63.25;100257.91;5115119;28;8848;-59
2022/11/02 08:34:03;;;;;;;;;2.00;0.50;;;;;13.69;62.59;100251.03;5115066;28;8870;-59
2022/11/02 08:36:32;;;;;;;;;0.67;0.67;;;;;13.75;63.00;100272.75;5115258;28;8912;-59
2022/11/02 08:39:00;;;;;;;;;0.00;0.00;;;;;13.79;62.33;100259.94;5115567;28;8932;-59
2022/11/02 08:41:28;;;;;;;;;0.25;0.25;;;;;13.84;62.38;100255.03;5115322;28;8824;-58
2022/11/02 08:43:57;;;;;;;;;1.00;0.75;;;;;13.88;61.98;100273.38;5115606;28;9149;-59
2022/11/02 08:46:25;;;;;;;;;0.50;0.50;;;;;13.97;62.21;100277.06;5114762;28;8932;-59
2022/11/02 08:48:53;;;;;;;;;0.00;0.00;;;;;14.07;61.82;100269.91;5115219;28;9529;-58
2022/11/02 08:51:21;;;;;;;;;0.50;0.50;;;;;14.13;61.99;100274.72;5114687;28;8827;-58
2022/11/02 08:53:49;;;;;;;;;1.00;1.00;;;;;14.13;61.97;100266.69;5115026;28;9537;-59
2022/11/02 08:56:18;;;;;;;;;1.00;1.00;;;;;14.12;61.75;100287.25;5114583;28;8920;-59
2022/11/02 08:58:46;;;;;;;;;1.00;1.00;;;;;14.09;61.75;100286.69;5114495;28;8808;-59
2022/11/02 09:01:13;;;;;;;;;0.00;0.00;;;;;14.05;61.52;100290.63;5115056;28;8827;-58
2022/11/02 09:03:42;;;;;;;;;2.00;2.00;;;;;13.98;61.80;100278.78;5114816;28;8855;-59
2022/11/02 09:06:09;;;;;;;;;1.00;1.00;;;;;13.91;61.82;100282.97;5114289;28;8832;-59
2022/11/02 09:08:37;;;;;;;;;1.00;1.00;;;;;13.90;61.58;100286.63;5113841;28;8851;-59
2022/11/02 09:11:05;;;;;;;;;0.50;0.50;;;;;13.95;62.16;100300.44;5112988;28;9497;-59
2022/11/02 09:13:36;;;;;;;;;0.25;0.00;;;;;14.03;61.60;100304.16;5111994;28;8916;-59
2022/11/02 09:16:04;;;;;;;;;0.00;0.00;;;;;14.13;61.32;100306.88;5113016;28;9485;-59
2022/11/02 09:18:31;;;;;;;;;0.75;0.75;;;;;14.23;61.24;100310.47;5113347;28;9608;-59
2022/11/02 09:20:59;;;;;;;;;0.00;0.00;;;;;14.31;61.01;100314.16;5112812;28;8912;-58
2022/11/02 09:23:27;;;;;;;;;2.50;1.00;;;;;14.36;61.03;100324.47;5113913;28;8819;-59
2022/11/02 09:25:54;;;;;;;;;0.00;0.00;;;;;14.42;61.25;100315.88;5112790;28;8875;-59
2022/11/02 09:28:23;;;;;;;;;1.00;1.00;;;;;14.53;60.90;100307.72;5112889;28;8823;-59
2022/11/02 09:30:50;;;;;;;;;1.00;1.00;;;;;14.61;60.28;100315.91;5113191;28;8827;-59
2022/11/02 09:33:18;;;;;;;;;0.50;0.50;;;;;14.69;60.26;100321.44;5111754;28;8824;-59
2022/11/02 09:35:46;;;;;;;;;0.25;0.25;;;;;14.74;60.38;100324.56;5111564;28;8920;-58
2022/11/02 09:38:17;;;;;;;;;1.00;0.00;;;;;14.73;60.16;100330.91;5112049;28;8928;-59
2022/11/02 09:40:45;;;;;;;;;1.00;1.00;;;;;14.65;60.36;100328.06;5111410;28;8867;-59
2022/11/02 09:43:13;;;;;;;;;0.50;0.25;;;;;14.64;61.08;100323.69;5111187;28;8883;-59
2022/11/02 09:45:41;;;;;;;;;1.00;1.00;;;;;14.76;60.09;100330.63;5110044;28;8855;-59
2022/11/02 09:48:08;;;;;;;;;1.00;0.25;;;;;14.98;59.69;100346.44;5110062;28;8824;-58
2022/11/02 09:50:52;;;;;;;;;2.00;2.00;;;;;15.25;58.86;100335.88;5110551;28;8844;-59
2022/11/02 09:53:25;;;;;;;;;1.00;1.00;;;;;15.72;57.66;100337.69;5110838;28;8847;-59
2022/11/02 09:55:53;;;;;;;;;0.50;0.00;;;;;16.16;56.68;100328.91;5110329;28;8828;-59
2022/11/02 09:58:21;;;;;;;;;4.00;1.00;;;;;16.50;56.24;100336.28;5110656;28;8827;-59
2022/11/02 10:00:49;;;;;;;;;1.00;1.00;;;;;16.68;55.92;100329.06;5110226;28;9473;-59
2022/11/02 10:03:17;;;;;;;;;1.00;1.00;;;;;16.91;55.54;100333.88;5110585;28;8643;-59
2022/11/02 10:05:45;;;;;;;;;0.40;0.00;;;;;17.56;54.46;100333.50;5111099;28;8828;-59
2022/11/02 10:08:13;;;;;;;;;1.40;1.40;;;;;18.16;52.88;100321.78;5110727;28;8852;-59
2022/11/02 10:10:41;;;;;;;;;2.60;2.20;;;;;18.75;51.60;100318.16;5109529;28;8859;-59
2022/11/02 10:13:08;;;;;;;;;0.00;0.00;;;;;19.23;50.91;100324.53;5109935;28;8919;-59
2022/11/02 10:15:36;;;;;;;;;1.40;1.40;;;;;19.55;50.28;100326.34;5110781;28;9599;-59
2022/11/02 10:18:05;;;;;;;;;1.00;1.00;;;;;19.60;50.56;100330.25;5111770;28;8924;-59
2022/11/02 10:20:33;;;;;;;;;0.20;0.20;;;;;19.87;50.14;100340.69;5112690;28;8831;-59
2022/11/02 10:23:02;;;;;;;;;1.00;1.00;;;;;19.89;49.84;100332.41;5112888;28;8820;-59
2022/11/02 10:25:30;;;;;;;;;2.00;0.80;;;;;19.12;51.41;100322.09;5114204;28;8855;-59
2022/11/02 10:28:00;;;;;;;;;3.20;3.20;;;;;18.26;53.00;100327.88;5114496;28;8826;-59
2022/11/02 10:30:28;;;;;;;;;1.00;1.00;;;;;17.45;54.53;100335.63;5112736;28;8851;-59
2022/11/02 10:32:56;;;;;;;;;1.00;0.80;;;;;16.94;55.65;100346.19;5113462;28;8962;-59
2022/11/02 10:35:23;;;;;;;;;1.40;1.00;;;;;17.09;55.31;100333.91;5111665;28;8851;-59
2022/11/02 10:38:12;;;;;;;;;0.00;0.00;;;;;17.51;54.55;100341.22;5111852;28;8879;-59
2022/11/02 10:40:42;;;;;;;;;0.60;0.60;;;;;17.71;53.92;100347.25;5111817;28;8998;-59
2022/11/02 10:43:09;;;;;;;;;1.00;1.00;;;;;17.78;53.42;100338.38;5110817;28;9521;-59
2022/11/02 10:45:37;;;;;;;;;0.00;0.00;;;;;17.89;53.24;100339.94;5111866;28;8858;-59
2022/11/02 10:48:05;;;;;;;;;0.00;0.00;;;;;17.75;53.53;100344.06;5111348;28;8831;-59
2022/11/02 10:50:34;;;;;;;;;2.20;1.00;;;;;17.92;52.68;100345.88;5110911;28;9536;-59
2022/11/02 10:53:02;;;;;;;;;1.00;1.00;;;;;18.14;52.30;100345.34;5112008;28;8970;-59
2022/11/02 10:55:50;;;;;;;;;0.00;0.00;;;;;18.26;51.98;100335.97;5110795;28;8843;-58
2022/11/02 10:58:18;;;;;;;;;0.00;0.00;;;;;18.22;52.04;100348.06;5111156;28;8824;-59
2022/11/02 11:00:47;;;;;;;;;1.40;1.40;;;;;18.14;52.27;100356.13;5110736;28;8861;-59
2022/11/02 11:03:16;;;;;;;;;1.40;0.40;;;;;18.06;52.12;100363.34;5111119;28;9514;-59
2022/11/02 11:05:44;;;;;;;;;1.40;1.40;;;;;18.06;52.11;100358.75;5111084;28;9545;-59
2022/11/02 11:08:12;;;;;;;;;0.00;0.00;;;;;17.95;52.16;100350.97;5110724;28;8859;-59
2022/11/02 11:10:42;;;;;;;;;1.00;1.00;;;;;17.74;52.86;100355.88;5110403;28;8834;-59
2022/11/02 11:13:10;;;;;;;;;3.60;3.20;;;;;17.54;53.44;100357.03;5109728;28;8832;-59
2022/11/02 11:15:58;;;;;;;;;0.40;0.00;;;;;17.45;53.71;100363.38;5111090;28;8856;-59
2022/11/02 11:18:26;;;;;;;;;0.80;0.80;;;;;17.32;53.64;100362.03;5113408;28;8839;-59
2022/11/02 11:21:14;;;;;;;;;0.40;0.40;;;;;17.15;54.18;100368.28;5111918;28;8851;-59
2022/11/02 11:23:44;;;;;;;;;1.00;1.00;;;;;17.00;54.45;100356.34;5113286;28;8878;-59
2022/11/02 11:26:12;;;;;;;;;1.00;1.00;;;;;16.83;54.54;100366.09;5114785;28;8836;-59
2022/11/02 11:28:40;;;;;;;;;0.60;0.60;;;;;16.76;54.23;100373.06;5114544;28;8848;-59
2022/11/02 11:31:08;;;;;;;;;0.40;0.40;;;;;16.80;54.16;100366.38;5113453;28;8974;-59
2022/11/02 11:33:36;;;;;;;;;0.00;0.00;;;;;16.87;54.10;100372.84;5114012;28;8844;-61
2022/11/02 11:36:05;;;;;;;;;0.00;0.00;;;;;17.02;53.24;100365.94;5114823;28;8843;-59
2022/11/02 11:38:33;;;;;;;;;1.00;1.00;;;;;17.13;52.85;100367.56;5115521;28;8844;-59
2022/11/02 11:41:00;;;;;;;;;0.00;0.00;;;;;17.12;52.64;100365.88;5115370;28;8827;-59
2022/11/02 11:43:29;;;;;;;;;0.00;0.00;;;;;17.04;52.85;100366.66;5115126;28;8812;-59
2022/11/02 11:45:57;;;;;;;;;0.00;0.00;;;;;16.94;52.98;100370.41;5114836;28;8828;-59
2022/11/02 11:48:32;;;;;;;;;2.60;1.00;;;;;16.82;53.24;100382.38;5114461;28;8856;-59
2022/11/02 11:51:00;;;;;;;;;0.00;0.00;;;;;16.74;53.22;100374.22;5115323;28;8835;-59
2022/11/02 11:53:27;;;;;;;;;1.00;0.00;;;;;16.69;52.64;100377.34;5114685;28;8837;-59